createdAt,value
2017-04-01T00:00:15.082Z,930.51
2017-04-01T00:00:43.295Z,930.51
2017-04-01T00:01:11.601Z,930.5
2017-04-01T00:01:39.789Z,930.49
2017-04-01T00:02:08.049Z,930.49
2017-04-01T00:02:36.337Z,930.5
2017-04-01T00:03:47.469Z,930.53
2017-04-01T00:04:15.745Z,930.49
2017-04-01T00:04:43.922Z,930.52
2017-04-01T00:05:12.091Z,930.5
2017-04-01T00:05:40.380Z,930.48
2017-04-01T00:06:08.554Z,930.48
2017-04-01T00:06:36.762Z,930.52
2017-04-01T00:07:04.878Z,930.5
2017-04-01T00:07:32.982Z,930.5
2017-04-01T00:08:01.241Z,930.47
2017-04-01T00:08:29.438Z,930.51
2017-04-01T00:09:40.581Z,930.47
2017-04-01T00:10:08.793Z,930.52
2017-04-01T00:10:36.781Z,930.47
2017-04-01T00:11:05.054Z,930.44
2017-04-01T00:11:33.344Z,930.5
2017-04-01T00:12:01.689Z,930.45
2017-04-01T00:12:29.897Z,930.53
2017-04-01T00:12:58.113Z,930.54
2017-04-01T00:13:26.394Z,930.53
2017-04-01T00:13:54.556Z,930.55
2017-04-01T00:14:22.753Z,930.57
2017-04-01T00:15:33.890Z,930.56
2017-04-01T00:16:02.171Z,930.62
2017-04-01T00:16:30.441Z,930.6
2017-04-01T00:16:58.608Z,930.62
2017-04-01T00:17:26.799Z,930.56
2017-04-01T00:17:54.953Z,930.58
2017-04-01T00:18:23.254Z,930.56
2017-04-01T00:18:51.561Z,930.6
2017-04-01T00:19:19.759Z,930.61
2017-04-01T00:19:47.923Z,930.63
2017-04-01T00:20:16.210Z,930.57
2017-04-01T00:21:27.437Z,930.6
2017-04-01T00:21:55.628Z,930.53
2017-04-01T00:22:23.896Z,930.57
2017-04-01T00:22:52.070Z,930.55
2017-04-01T00:23:20.266Z,930.6
2017-04-01T00:23:48.610Z,930.51
2017-04-01T00:24:16.814Z,930.56
2017-04-01T00:24:44.938Z,930.52
2017-04-01T00:25:13.040Z,930.56
2017-04-01T00:25:41.115Z,930.57
2017-04-01T00:26:09.311Z,930.51
2017-04-01T00:27:20.633Z,930.54
2017-04-01T00:27:48.914Z,930.57
2017-04-01T00:28:17.178Z,930.55
2017-04-01T00:28:45.262Z,930.49
2017-04-01T00:29:13.354Z,930.54
2017-04-01T00:29:41.510Z,930.52
2017-04-01T00:30:09.714Z,930.55
2017-04-01T00:30:37.924Z,930.56
2017-04-01T00:31:06.209Z,930.58
2017-04-01T00:31:34.377Z,930.54
2017-04-01T00:32:02.478Z,930.54
2017-04-01T00:33:13.797Z,930.53
2017-04-01T00:33:41.981Z,930.6
2017-04-01T00:34:10.162Z,930.62
2017-04-01T00:34:38.426Z,930.63
2017-04-01T00:35:06.713Z,930.64
2017-04-01T00:35:34.967Z,930.65
2017-04-01T00:36:03.174Z,930.63
2017-04-01T00:36:31.475Z,930.66
2017-04-01T00:36:59.578Z,930.71
2017-04-01T00:37:27.743Z,930.62
2017-04-01T00:37:55.847Z,930.67
2017-04-01T00:39:07.081Z,930.69
2017-04-01T00:39:35.363Z,930.69
2017-04-01T00:40:03.543Z,930.7
2017-04-01T00:40:31.812Z,930.7
2017-04-01T00:41:00.015Z,930.65
2017-04-01T00:41:28.192Z,930.62
2017-04-01T00:41:56.397Z,930.65
2017-04-01T00:42:24.630Z,930.54
2017-04-01T00:42:52.818Z,930.61
2017-04-01T00:43:20.985Z,930.64
2017-04-01T00:43:49.186Z,930.56
2017-04-01T00:45:00.411Z,930.61
2017-04-01T00:45:28.603Z,930.57
2017-04-01T00:45:56.696Z,930.72
2017-04-01T00:46:24.871Z,930.59
2017-04-01T00:46:53.078Z,930.6
2017-04-01T00:47:21.330Z,930.53
2017-04-01T00:47:49.443Z,930.6
2017-04-01T00:48:17.752Z,930.65
2017-04-01T00:48:45.957Z,930.58
2017-04-01T00:49:14.034Z,930.55
2017-04-01T00:49:42.135Z,930.55
2017-04-01T00:50:53.365Z,930.53
2017-04-01T00:51:21.648Z,930.66
2017-04-01T00:51:50.175Z,930.66
2017-04-01T00:52:18.445Z,930.58
2017-04-01T00:52:46.637Z,930.55
2017-04-01T00:53:14.888Z,930.57
2017-04-01T00:53:43.097Z,930.53
2017-04-01T00:54:11.314Z,930.5
2017-04-01T00:54:39.514Z,930.51
2017-04-01T00:55:07.590Z,930.53
2017-04-01T00:55:35.884Z,930.52
2017-04-01T00:56:47.217Z,930.49
2017-04-01T00:57:15.504Z,930.48
2017-04-01T00:57:43.777Z,930.46
2017-04-01T00:58:12.049Z,930.54
2017-04-01T00:58:40.242Z,930.46
2017-04-01T00:59:08.587Z,930.48
2017-04-01T00:59:36.697Z,930.48
2017-04-01T01:00:05.002Z,930.42
2017-04-01T01:00:33.289Z,930.42
2017-04-01T01:01:01.180Z,930.49
2017-04-01T01:01:29.470Z,930.42
2017-04-01T01:02:40.608Z,930.43
2017-04-01T01:03:08.802Z,930.39
2017-04-01T01:03:37.073Z,930.45
2017-04-01T01:04:05.242Z,930.39
2017-04-01T01:04:33.434Z,930.37
2017-04-01T01:05:01.686Z,930.4
2017-04-01T01:05:29.982Z,930.41
2017-04-01T01:05:58.195Z,930.43
2017-04-01T01:06:26.480Z,930.43
2017-04-01T01:06:54.649Z,930.42
2017-04-01T01:07:22.938Z,930.46
2017-04-01T01:08:33.978Z,930.47
2017-04-01T01:09:02.256Z,930.47
2017-04-01T01:09:30.257Z,930.43
2017-04-01T01:09:58.520Z,930.49
2017-04-01T01:10:26.617Z,930.45
2017-04-01T01:10:54.865Z,930.45
2017-04-01T01:11:23.075Z,930.41
2017-04-01T01:11:51.285Z,930.46
2017-04-01T01:12:19.573Z,930.42
2017-04-01T01:12:47.831Z,930.41
2017-04-01T01:13:15.939Z,930.52
2017-04-01T01:14:26.984Z,930.38
2017-04-01T01:14:55.262Z,930.37
2017-04-01T01:15:23.440Z,930.35
2017-04-01T01:15:51.610Z,930.36
2017-04-01T01:16:19.897Z,930.37
2017-04-01T01:16:48.073Z,930.32
2017-04-01T01:17:16.182Z,930.39
2017-04-01T01:17:44.401Z,930.37
2017-04-01T01:18:12.509Z,930.39
2017-04-01T01:18:40.674Z,930.33
2017-04-01T01:19:08.960Z,930.37
2017-04-01T01:20:20.189Z,930.38
2017-04-01T01:20:48.480Z,930.37
2017-04-01T01:21:16.654Z,930.34
2017-04-01T01:21:44.736Z,930.4
2017-04-01T01:22:12.927Z,930.41
2017-04-01T01:22:42.038Z,930.32
2017-04-01T01:23:10.239Z,930.33
2017-04-01T01:23:38.547Z,930.38
2017-04-01T01:24:06.837Z,930.37
2017-04-01T01:24:34.906Z,930.35
2017-04-01T01:25:03.003Z,930.47
2017-04-01T01:26:14.236Z,930.47
2017-04-01T01:26:42.423Z,930.45
2017-04-01T01:27:10.696Z,930.4
2017-04-01T01:27:38.966Z,930.42
2017-04-01T01:28:07.158Z,930.36
2017-04-01T01:28:35.499Z,930.42
2017-04-01T01:29:03.802Z,930.38
2017-04-01T01:29:32.018Z,930.44
2017-04-01T01:30:00.299Z,930.41
2017-04-01T01:30:28.469Z,930.41
2017-04-01T01:30:56.672Z,930.41
2017-04-01T01:32:07.903Z,930.41
2017-04-01T01:32:36.190Z,930.35
2017-04-01T01:33:04.461Z,930.4
2017-04-01T01:33:32.729Z,930.4
2017-04-01T01:34:00.832Z,930.39
2017-04-01T01:34:29.175Z,930.41
2017-04-01T01:34:57.381Z,930.46
2017-04-01T01:35:25.684Z,930.35
2017-04-01T01:35:53.791Z,930.39
2017-04-01T01:36:21.859Z,930.44
2017-04-01T01:36:50.155Z,930.41
2017-04-01T01:38:01.190Z,930.44
2017-04-01T01:38:29.466Z,930.4
2017-04-01T01:38:57.740Z,930.46
2017-04-01T01:39:26.007Z,930.51
2017-04-01T01:39:54.108Z,930.43
2017-04-01T01:40:22.270Z,930.47
2017-04-01T01:40:50.475Z,930.43
2017-04-01T01:41:18.786Z,930.53
2017-04-01T01:41:46.975Z,930.6
2017-04-01T01:42:15.045Z,930.5
2017-04-01T01:42:43.153Z,930.49
2017-04-01T01:43:54.479Z,930.47
2017-04-01T01:44:22.664Z,930.46
2017-04-01T01:44:50.845Z,930.49
2017-04-01T01:45:18.925Z,930.47
2017-04-01T01:45:47.114Z,930.5
2017-04-01T01:46:15.272Z,930.41
2017-04-01T01:46:43.574Z,930.43
2017-04-01T01:47:11.788Z,930.49
2017-04-01T01:47:40.069Z,930.4
2017-04-01T01:48:08.236Z,930.43
2017-04-01T01:48:36.346Z,930.42
2017-04-01T01:49:47.572Z,930.44
2017-04-01T01:50:15.851Z,930.35
2017-04-01T01:50:44.119Z,930.33
2017-04-01T01:51:12.285Z,930.33
2017-04-01T01:51:40.480Z,930.27
2017-04-01T01:52:08.657Z,930.43
2017-04-01T01:52:36.761Z,930.3
2017-04-01T01:53:04.882Z,930.3
2017-04-01T01:53:33.080Z,930.31
2017-04-01T01:54:01.149Z,930.3
2017-04-01T01:54:29.345Z,930.29
2017-04-01T01:55:40.576Z,930.29
2017-04-01T01:56:08.858Z,930.3
2017-04-01T01:56:37.126Z,930.31
2017-04-01T01:57:05.390Z,930.27
2017-04-01T01:57:33.584Z,930.3
2017-04-01T01:58:01.928Z,930.3
2017-04-01T01:58:30.138Z,930.23
2017-04-01T01:58:58.346Z,930.26
2017-04-01T01:59:26.441Z,930.22
2017-04-01T01:59:54.519Z,930.33
2017-04-01T02:00:22.817Z,930.2
2017-04-01T02:01:33.953Z,930.24
2017-04-01T02:02:02.236Z,930.23
2017-04-01T02:02:30.508Z,930.24
2017-04-01T02:02:58.782Z,930.25
2017-04-01T02:03:26.974Z,930.29
2017-04-01T02:03:55.132Z,930.25
2017-04-01T02:04:23.250Z,930.22
2017-04-01T02:04:51.552Z,930.2
2017-04-01T02:05:19.742Z,930.29
2017-04-01T02:05:47.625Z,930.24
2017-04-01T02:06:15.818Z,930.3
2017-04-01T02:07:27.134Z,930.25
2017-04-01T02:07:55.413Z,930.29
2017-04-01T02:08:23.494Z,930.23
2017-04-01T02:08:51.666Z,930.18
2017-04-01T02:09:19.764Z,930.26
2017-04-01T02:09:48.102Z,930.17
2017-04-01T02:10:16.400Z,930.22
2017-04-01T02:10:44.621Z,930.18
2017-04-01T02:11:12.721Z,930.16
2017-04-01T02:11:40.880Z,930.2
2017-04-01T02:12:09.173Z,930.2
2017-04-01T02:13:20.306Z,930.14
2017-04-01T02:13:48.499Z,930.2
2017-04-01T02:14:16.766Z,930.21
2017-04-01T02:14:44.840Z,930.14
2017-04-01T02:15:13.120Z,930.14
2017-04-01T02:15:41.370Z,930.15
2017-04-01T02:16:09.483Z,930.16
2017-04-01T02:16:37.784Z,930.14
2017-04-01T02:17:05.886Z,930.16
2017-04-01T02:17:34.141Z,930.11
2017-04-01T02:18:02.432Z,930.11
2017-04-01T02:19:13.654Z,930.1
2017-04-01T02:19:41.932Z,930.15
2017-04-01T02:20:10.116Z,930.13
2017-04-01T02:20:38.279Z,930.08
2017-04-01T02:21:06.374Z,930.11
2017-04-01T02:21:34.630Z,930.08
2017-04-01T02:22:02.839Z,930.13
2017-04-01T02:22:30.955Z,930.07
2017-04-01T02:22:59.145Z,930.11
2017-04-01T02:23:27.399Z,930.12
2017-04-01T02:23:55.595Z,930.1
2017-04-01T02:25:06.819Z,930.08
2017-04-01T02:25:35.099Z,930.09
2017-04-01T02:26:03.365Z,930.11
2017-04-01T02:26:31.539Z,930.06
2017-04-01T02:26:59.632Z,930.16
2017-04-01T02:27:27.886Z,930.09
2017-04-01T02:27:56.000Z,930.08
2017-04-01T02:28:24.213Z,930.01
2017-04-01T02:28:52.502Z,930.01
2017-04-01T02:29:20.764Z,930.09
2017-04-01T02:29:49.051Z,930.05
2017-04-01T02:31:00.090Z,930.09
2017-04-01T02:31:28.283Z,930.06
2017-04-01T02:31:56.367Z,930.11
2017-04-01T02:32:24.535Z,930.1
2017-04-01T02:32:52.633Z,930.1
2017-04-01T02:33:20.981Z,930.07
2017-04-01T02:33:49.283Z,930.09
2017-04-01T02:34:17.312Z,930.04
2017-04-01T02:34:45.594Z,930.07
2017-04-01T02:35:13.757Z,930.08
2017-04-01T02:35:41.779Z,930.05
2017-04-01T02:36:53.012Z,930.12
2017-04-01T02:37:21.203Z,929.96
2017-04-01T02:37:49.470Z,930.07
2017-04-01T02:38:17.739Z,930.05
2017-04-01T02:38:46.025Z,930.04
2017-04-01T02:39:14.184Z,930.04
2017-04-01T02:39:42.393Z,930.05
2017-04-01T02:40:10.603Z,930.01
2017-04-01T02:40:38.791Z,930
2017-04-01T02:41:07.051Z,930.01
2017-04-01T02:41:35.260Z,930.02
2017-04-01T02:42:46.392Z,930.02
2017-04-01T02:43:14.678Z,930.1
2017-04-01T02:43:42.941Z,930.01
2017-04-01T02:44:11.120Z,930.03
2017-04-01T02:44:39.405Z,929.98
2017-04-01T02:45:07.655Z,930.07
2017-04-01T02:45:35.957Z,930.05
2017-04-01T02:46:04.258Z,930.04
2017-04-01T02:46:32.544Z,930.05
2017-04-01T02:47:00.800Z,930.05
2017-04-01T02:47:28.997Z,930.02
2017-04-01T02:48:40.230Z,930.01
2017-04-01T02:49:08.511Z,930.01
2017-04-01T02:49:36.777Z,929.95
2017-04-01T02:50:04.951Z,930
2017-04-01T02:50:33.047Z,930.01
2017-04-01T02:51:01.300Z,929.98
2017-04-01T02:51:29.502Z,929.96
2017-04-01T02:51:57.806Z,929.96
2017-04-01T02:52:26.000Z,929.96
2017-04-01T02:52:54.261Z,929.96
2017-04-01T02:53:22.461Z,929.95
2017-04-01T02:54:33.786Z,929.94
2017-04-01T02:55:02.062Z,929.93
2017-04-01T02:55:30.330Z,929.92
2017-04-01T02:55:58.601Z,929.96
2017-04-01T02:56:27.323Z,929.94
2017-04-01T02:56:55.391Z,929.87
2017-04-01T02:57:23.685Z,929.96
2017-04-01T02:57:51.988Z,929.91
2017-04-01T02:58:20.277Z,929.94
2017-04-01T02:58:48.443Z,929.86
2017-04-01T02:59:16.733Z,929.86
2017-04-01T03:00:27.770Z,929.84
2017-04-01T03:00:56.051Z,929.9
2017-04-01T03:01:24.235Z,929.85
2017-04-01T03:01:52.493Z,929.85
2017-04-01T03:02:20.689Z,929.96
2017-04-01T03:02:49.035Z,929.87
2017-04-01T03:03:17.243Z,929.84
2017-04-01T03:03:45.549Z,929.89
2017-04-01T03:04:13.645Z,929.83
2017-04-01T03:04:41.721Z,929.88
2017-04-01T03:05:09.913Z,929.85
2017-04-01T03:06:21.045Z,929.83
2017-04-01T03:06:49.321Z,929.84
2017-04-01T03:07:17.588Z,929.84
2017-04-01T03:07:45.579Z,929.87
2017-04-01T03:08:13.766Z,929.87
2017-04-01T03:08:42.020Z,929.89
2017-04-01T03:09:10.137Z,929.96
2017-04-01T03:09:38.349Z,929.89
2017-04-01T03:10:06.543Z,929.92
2017-04-01T03:10:34.801Z,929.9
2017-04-01T03:11:02.902Z,929.93
2017-04-01T03:12:13.942Z,929.92
2017-04-01T03:12:42.222Z,929.92
2017-04-01T03:13:10.400Z,929.9
2017-04-01T03:13:38.571Z,929.9
2017-04-01T03:14:06.762Z,929.91
2017-04-01T03:14:35.110Z,929.89
2017-04-01T03:15:03.319Z,929.87
2017-04-01T03:15:31.533Z,929.88
2017-04-01T03:15:59.727Z,929.84
2017-04-01T03:16:27.893Z,929.83
2017-04-01T03:16:56.182Z,929.85
2017-04-01T03:18:07.220Z,929.81
2017-04-01T03:18:35.496Z,929.77
2017-04-01T03:19:03.767Z,929.81
2017-04-01T03:19:32.035Z,929.76
2017-04-01T03:20:00.134Z,929.76
2017-04-01T03:20:28.203Z,929.75
2017-04-01T03:20:56.317Z,929.75
2017-04-01T03:21:24.624Z,929.8
2017-04-01T03:21:52.910Z,929.75
2017-04-01T03:22:20.978Z,929.79
2017-04-01T03:22:49.270Z,929.79
2017-04-01T03:24:00.404Z,929.78
2017-04-01T03:24:28.682Z,929.75
2017-04-01T03:24:56.860Z,929.79
2017-04-01T03:25:25.127Z,929.77
2017-04-01T03:25:53.315Z,929.8
2017-04-01T03:26:21.660Z,929.77
2017-04-01T03:26:49.858Z,929.77
2017-04-01T03:27:18.163Z,929.81
2017-04-01T03:27:46.445Z,929.76
2017-04-01T03:28:14.616Z,929.77
2017-04-01T03:28:42.813Z,929.81
2017-04-01T03:29:54.044Z,929.8
2017-04-01T03:30:22.319Z,929.82
2017-04-01T03:30:50.497Z,929.85
2017-04-01T03:31:18.670Z,929.86
2017-04-01T03:31:46.859Z,929.87
2017-04-01T03:32:15.017Z,929.85
2017-04-01T03:32:43.315Z,929.87
2017-04-01T03:33:11.530Z,929.85
2017-04-01T03:33:39.817Z,929.86
2017-04-01T03:34:07.981Z,929.82
2017-04-01T03:34:36.271Z,929.85
2017-04-01T03:35:47.405Z,929.9
2017-04-01T03:36:15.683Z,929.83
2017-04-01T03:36:43.951Z,929.83
2017-04-01T03:37:12.128Z,929.88
2017-04-01T03:37:40.325Z,929.81
2017-04-01T03:38:08.668Z,929.82
2017-04-01T03:38:36.877Z,929.83
2017-04-01T03:39:05.003Z,929.8
2017-04-01T03:39:33.290Z,929.84
2017-04-01T03:40:01.465Z,929.81
2017-04-01T03:40:29.660Z,929.78
2017-04-01T03:41:40.800Z,929.78
2017-04-01T03:42:09.078Z,929.78
2017-04-01T03:42:37.479Z,929.77
2017-04-01T03:43:05.647Z,929.76
2017-04-01T03:43:33.843Z,929.75
2017-04-01T03:44:02.190Z,929.76
2017-04-01T03:44:30.481Z,929.78
2017-04-01T03:44:58.696Z,929.79
2017-04-01T03:45:26.896Z,929.75
2017-04-01T03:45:55.155Z,929.78
2017-04-01T03:46:23.356Z,929.74
2017-04-01T03:47:34.392Z,929.75
2017-04-01T03:48:02.676Z,929.72
2017-04-01T03:48:30.855Z,929.74
2017-04-01T03:48:59.123Z,929.74
2017-04-01T03:49:27.311Z,929.73
2017-04-01T03:49:55.563Z,929.72
2017-04-01T03:50:23.770Z,929.76
2017-04-01T03:50:51.988Z,929.76
2017-04-01T03:51:20.180Z,929.79
2017-04-01T03:51:48.439Z,929.73
2017-04-01T03:52:16.648Z,929.74
2017-04-01T03:53:27.973Z,929.76
2017-04-01T03:53:56.247Z,929.7
2017-04-01T03:54:24.513Z,929.74
2017-04-01T03:54:52.589Z,929.74
2017-04-01T03:55:20.778Z,929.71
2017-04-01T03:55:49.120Z,929.77
2017-04-01T03:56:17.240Z,929.7
2017-04-01T03:56:45.447Z,929.75
2017-04-01T03:57:13.637Z,929.72
2017-04-01T03:57:41.801Z,929.69
2017-04-01T03:58:10.095Z,929.66
2017-04-01T03:59:21.140Z,929.67
2017-04-01T03:59:49.418Z,929.67
2017-04-01T04:00:17.692Z,929.66
2017-04-01T04:00:45.962Z,929.63
2017-04-01T04:01:14.065Z,929.63
2017-04-01T04:01:42.319Z,929.59
2017-04-01T04:02:10.614Z,929.65
2017-04-01T04:02:38.738Z,929.72
2017-04-01T04:03:06.940Z,929.66
2017-04-01T04:03:35.101Z,929.61
2017-04-01T04:04:03.395Z,929.66
2017-04-01T04:05:14.621Z,929.62
2017-04-01T04:05:42.900Z,929.62
2017-04-01T04:06:11.166Z,929.63
2017-04-01T04:06:39.245Z,929.58
2017-04-01T04:07:07.436Z,929.59
2017-04-01T04:07:35.780Z,929.6
2017-04-01T04:08:03.988Z,929.63
2017-04-01T04:08:32.304Z,929.62
2017-04-01T04:09:00.592Z,929.57
2017-04-01T04:09:28.857Z,929.54
2017-04-01T04:09:57.052Z,929.59
2017-04-01T04:11:08.192Z,929.57
2017-04-01T04:11:36.380Z,929.58
2017-04-01T04:12:04.560Z,929.59
2017-04-01T04:12:32.647Z,929.59
2017-04-01T04:13:00.835Z,929.57
2017-04-01T04:13:29.092Z,929.6
2017-04-01T04:13:57.204Z,929.56
2017-04-01T04:14:25.418Z,929.57
2017-04-01T04:14:53.701Z,929.53
2017-04-01T04:15:21.959Z,929.54
2017-04-01T04:15:50.065Z,929.53
2017-04-01T04:17:01.294Z,929.53
2017-04-01T04:17:29.579Z,929.53
2017-04-01T04:17:57.846Z,929.52
2017-04-01T04:18:26.021Z,929.45
2017-04-01T04:18:54.213Z,929.55
2017-04-01T04:19:22.371Z,929.5
2017-04-01T04:19:50.580Z,929.45
2017-04-01T04:20:18.792Z,929.46
2017-04-01T04:20:46.989Z,929.46
2017-04-01T04:21:15.247Z,929.46
2017-04-01T04:21:43.441Z,929.44
2017-04-01T04:22:54.669Z,929.48
2017-04-01T04:23:22.946Z,929.38
2017-04-01T04:23:51.222Z,929.38
2017-04-01T04:24:19.492Z,929.39
2017-04-01T04:24:47.685Z,929.35
2017-04-01T04:25:15.842Z,929.41
2017-04-01T04:25:44.050Z,929.37
2017-04-01T04:26:12.258Z,929.41
2017-04-01T04:26:40.546Z,929.43
2017-04-01T04:27:08.619Z,929.36
2017-04-01T04:27:36.918Z,929.37
2017-04-01T04:28:48.241Z,929.35
2017-04-01T04:29:16.521Z,929.33
2017-04-01T04:29:44.797Z,929.3
2017-04-01T04:30:13.059Z,929.32
2017-04-01T04:30:41.248Z,929.39
2017-04-01T04:31:09.502Z,929.3
2017-04-01T04:31:37.709Z,929.32
2017-04-01T04:32:06.015Z,929.32
2017-04-01T04:32:34.299Z,929.31
2017-04-01T04:33:02.559Z,929.33
2017-04-01T04:33:30.659Z,929.31
2017-04-01T04:34:41.886Z,929.32
2017-04-01T04:35:10.167Z,929.27
2017-04-01T04:35:38.431Z,929.24
2017-04-01T04:36:06.608Z,929.29
2017-04-01T04:36:34.799Z,929.26
2017-04-01T04:37:03.048Z,929.26
2017-04-01T04:37:31.352Z,929.31
2017-04-01T04:37:59.657Z,929.26
2017-04-01T04:38:27.951Z,929.26
2017-04-01T04:38:56.212Z,929.24
2017-04-01T04:39:24.407Z,929.26
2017-04-01T04:40:35.640Z,929.27
2017-04-01T04:41:03.921Z,929.23
2017-04-01T04:41:32.192Z,929.23
2017-04-01T04:42:00.367Z,929.22
2017-04-01T04:42:28.552Z,929.22
2017-04-01T04:42:56.899Z,929.22
2017-04-01T04:43:25.103Z,929.22
2017-04-01T04:43:53.406Z,929.23
2017-04-01T04:44:21.696Z,929.21
2017-04-01T04:44:49.954Z,929.17
2017-04-01T04:45:18.246Z,929.19
2017-04-01T04:46:29.286Z,929.18
2017-04-01T04:46:57.569Z,929.17
2017-04-01T04:47:25.747Z,929.15
2017-04-01T04:47:53.918Z,929.19
2017-04-01T04:48:22.107Z,929.14
2017-04-01T04:48:50.267Z,929.12
2017-04-01T04:49:18.567Z,929.1
2017-04-01T04:49:46.778Z,929.14
2017-04-01T04:50:14.974Z,929.1
2017-04-01T04:50:43.237Z,929.1
2017-04-01T04:51:11.526Z,929.05
2017-04-01T04:52:22.659Z,929.02
2017-04-01T04:52:50.758Z,929.02
2017-04-01T04:53:18.933Z,929
2017-04-01T04:53:47.201Z,928.99
2017-04-01T04:54:15.302Z,929.02
2017-04-01T04:54:43.453Z,929
2017-04-01T04:55:11.652Z,929
2017-04-01T04:55:39.771Z,928.99
2017-04-01T04:56:08.061Z,928.97
2017-04-01T04:56:36.134Z,929.01
2017-04-01T04:57:04.151Z,928.98
2017-04-01T04:58:15.285Z,928.97
2017-04-01T04:58:43.563Z,928.95
2017-04-01T04:59:11.739Z,928.92
2017-04-01T04:59:40.008Z,928.89
2017-04-01T05:00:08.198Z,928.91
2017-04-01T05:00:36.360Z,928.96
2017-04-01T05:01:04.663Z,928.87
2017-04-01T05:01:32.878Z,928.91
2017-04-01T05:02:00.970Z,928.89
2017-04-01T05:02:29.140Z,928.94
2017-04-01T05:02:57.429Z,928.93
2017-04-01T05:04:08.747Z,928.95
2017-04-01T05:04:36.852Z,928.95
2017-04-01T05:05:05.033Z,928.89
2017-04-01T05:05:33.206Z,928.91
2017-04-01T05:06:01.397Z,928.9
2017-04-01T05:06:29.744Z,928.91
2017-04-01T05:06:58.042Z,928.91
2017-04-01T05:07:26.349Z,928.88
2017-04-01T05:07:54.541Z,928.94
2017-04-01T05:08:22.793Z,928.89
2017-04-01T05:08:50.995Z,928.91
2017-04-01T05:10:02.126Z,928.9
2017-04-01T05:10:30.402Z,928.92
2017-04-01T05:10:58.503Z,928.89
2017-04-01T05:11:26.661Z,928.95
2017-04-01T05:11:54.948Z,928.96
2017-04-01T05:12:23.293Z,928.98
2017-04-01T05:12:51.405Z,928.98
2017-04-01T05:13:19.621Z,928.97
2017-04-01T05:13:47.720Z,928.97
2017-04-01T05:14:15.981Z,929.01
2017-04-01T05:14:44.087Z,928.98
2017-04-01T05:15:55.323Z,928.97
2017-04-01T05:16:23.603Z,928.97
2017-04-01T05:16:51.876Z,928.97
2017-04-01T05:17:20.137Z,928.99
2017-04-01T05:17:48.423Z,928.99
2017-04-01T05:18:16.673Z,928.97
2017-04-01T05:18:44.973Z,928.97
2017-04-01T05:19:13.189Z,929
2017-04-01T05:19:41.377Z,928.99
2017-04-01T05:20:09.448Z,928.95
2017-04-01T05:20:37.743Z,928.98
2017-04-01T05:21:49.063Z,928.96
2017-04-01T05:22:17.343Z,928.96
2017-04-01T05:22:45.522Z,928.91
2017-04-01T05:23:13.792Z,928.93
2017-04-01T05:23:42.073Z,928.91
2017-04-01T05:24:10.231Z,928.93
2017-04-01T05:24:38.532Z,928.92
2017-04-01T05:25:06.834Z,928.93
2017-04-01T05:25:35.120Z,929.01
2017-04-01T05:26:03.380Z,928.98
2017-04-01T05:26:31.576Z,928.98
2017-04-01T05:27:42.899Z,928.94
2017-04-01T05:28:11.174Z,928.92
2017-04-01T05:28:39.351Z,928.94
2017-04-01T05:29:07.616Z,928.95
2017-04-01T05:29:35.813Z,928.95
2017-04-01T05:30:04.063Z,928.95
2017-04-01T05:30:32.267Z,928.92
2017-04-01T05:31:00.579Z,928.93
2017-04-01T05:31:28.769Z,928.93
2017-04-01T05:31:57.026Z,928.94
2017-04-01T05:32:25.229Z,928.9
2017-04-01T05:33:36.462Z,928.92
2017-04-01T05:34:04.744Z,929
2017-04-01T05:34:33.012Z,928.94
2017-04-01T05:35:01.191Z,928.9
2017-04-01T05:35:29.479Z,928.9
2017-04-01T05:35:57.821Z,928.91
2017-04-01T05:36:26.029Z,928.86
2017-04-01T05:36:54.245Z,928.88
2017-04-01T05:37:22.533Z,928.92
2017-04-01T05:37:50.791Z,928.86
2017-04-01T05:38:18.992Z,928.86
2017-04-01T05:39:30.317Z,928.9
2017-04-01T05:39:58.597Z,928.88
2017-04-01T05:40:26.777Z,928.89
2017-04-01T05:40:55.044Z,928.89
2017-04-01T05:41:23.238Z,928.92
2017-04-01T05:41:51.491Z,928.9
2017-04-01T05:42:19.794Z,928.87
2017-04-01T05:42:48.102Z,928.88
2017-04-01T05:43:16.387Z,928.88
2017-04-01T05:43:44.644Z,928.89
2017-04-01T05:44:12.842Z,928.88
2017-04-01T05:45:23.975Z,928.85
2017-04-01T05:45:52.288Z,928.88
2017-04-01T05:46:20.437Z,928.85
2017-04-01T05:46:48.702Z,928.81
2017-04-01T05:47:16.803Z,928.85
2017-04-01T05:47:45.146Z,928.92
2017-04-01T05:48:13.351Z,928.82
2017-04-01T05:48:41.565Z,928.78
2017-04-01T05:49:09.662Z,928.79
2017-04-01T05:49:37.923Z,928.79
2017-04-01T05:50:06.212Z,928.79
2017-04-01T05:51:17.441Z,928.79
2017-04-01T05:51:45.719Z,928.77
2017-04-01T05:52:13.992Z,928.8
2017-04-01T05:52:42.255Z,928.77
2017-04-01T05:53:10.445Z,928.78
2017-04-01T05:53:38.610Z,928.75
2017-04-01T05:54:06.812Z,928.74
2017-04-01T05:54:35.031Z,928.74
2017-04-01T05:55:03.313Z,928.75
2017-04-01T05:55:31.384Z,928.76
2017-04-01T05:55:59.671Z,928.71
2017-04-01T05:57:10.997Z,928.69
2017-04-01T05:57:39.273Z,928.71
2017-04-01T05:58:07.450Z,928.67
2017-04-01T05:58:35.721Z,928.67
2017-04-01T05:59:03.815Z,928.72
2017-04-01T05:59:31.972Z,928.65
2017-04-01T06:00:00.084Z,928.69
2017-04-01T06:00:28.388Z,928.69
2017-04-01T06:00:56.675Z,928.81
2017-04-01T06:01:24.844Z,928.69
2017-04-01T06:01:53.040Z,928.69
2017-04-01T06:03:04.176Z,928.65
2017-04-01T06:03:32.366Z,928.64
2017-04-01T06:04:00.544Z,928.67
2017-04-01T06:04:28.805Z,928.66
2017-04-01T06:04:57.092Z,928.71
2017-04-01T06:05:25.434Z,928.68
2017-04-01T06:05:53.638Z,928.74
2017-04-01T06:06:21.946Z,928.73
2017-04-01T06:06:50.043Z,928.67
2017-04-01T06:07:18.300Z,928.65
2017-04-01T06:07:46.592Z,928.61
2017-04-01T06:08:57.629Z,928.6
2017-04-01T06:09:25.911Z,928.61
2017-04-01T06:09:54.175Z,928.65
2017-04-01T06:10:22.352Z,928.61
2017-04-01T06:10:50.451Z,928.59
2017-04-01T06:11:18.701Z,928.61
2017-04-01T06:11:47.006Z,928.6
2017-04-01T06:12:15.313Z,928.6
2017-04-01T06:12:43.596Z,928.53
2017-04-01T06:13:11.668Z,928.58
2017-04-01T06:13:39.863Z,928.56
2017-04-01T06:14:50.998Z,928.58
2017-04-01T06:15:19.276Z,928.51
2017-04-01T06:15:47.546Z,928.54
2017-04-01T06:16:15.715Z,928.52
2017-04-01T06:16:44.000Z,928.57
2017-04-01T06:17:12.254Z,928.54
2017-04-01T06:17:40.465Z,928.54
2017-04-01T06:18:08.773Z,928.51
2017-04-01T06:18:37.058Z,928.51
2017-04-01T06:19:05.319Z,928.51
2017-04-01T06:19:33.611Z,928.54
2017-04-01T06:20:44.837Z,928.5
2017-04-01T06:21:13.120Z,928.5
2017-04-01T06:21:41.391Z,928.48
2017-04-01T06:22:09.664Z,928.47
2017-04-01T06:22:37.948Z,928.47
2017-04-01T06:23:06.198Z,928.42
2017-04-01T06:23:34.404Z,928.47
2017-04-01T06:24:02.616Z,928.45
2017-04-01T06:24:30.907Z,928.45
2017-04-01T06:24:59.067Z,928.47
2017-04-01T06:25:27.265Z,928.46
2017-04-01T06:26:38.494Z,928.46
2017-04-01T06:27:06.770Z,928.4
2017-04-01T06:27:35.042Z,928.4
2017-04-01T06:28:03.308Z,928.39
2017-04-01T06:28:31.496Z,928.41
2017-04-01T06:28:59.653Z,928.44
2017-04-01T06:29:27.765Z,928.41
2017-04-01T06:29:56.074Z,928.41
2017-04-01T06:30:24.274Z,928.43
2017-04-01T06:30:52.444Z,928.36
2017-04-01T06:31:20.731Z,928.36
2017-04-01T06:32:31.865Z,928.34
2017-04-01T06:33:00.146Z,928.31
2017-04-01T06:33:28.233Z,928.34
2017-04-01T06:33:56.397Z,928.32
2017-04-01T06:34:24.684Z,928.29
2017-04-01T06:34:52.941Z,928.32
2017-04-01T06:35:21.052Z,928.29
2017-04-01T06:35:49.271Z,928.28
2017-04-01T06:36:17.465Z,928.28
2017-04-01T06:36:45.631Z,928.26
2017-04-01T06:37:13.829Z,928.3
2017-04-01T06:38:24.961Z,928.3
2017-04-01T06:38:53.239Z,928.37
2017-04-01T06:39:21.417Z,928.35
2017-04-01T06:39:49.678Z,928.28
2017-04-01T06:40:17.872Z,928.28
2017-04-01T06:40:46.219Z,928.25
2017-04-01T06:41:14.326Z,928.27
2017-04-01T06:41:42.634Z,928.25
2017-04-01T06:42:10.828Z,928.25